Terminal Aerodrome Forecast
Issued by NWS

Home | Current Version | Previous Version | Text Only | Print | Product List | Glossary On
Versions: 1 2 3 4 5 6 7 8 9 10 11 12 13 14 15 16 17 18
000
FTUS42 KTBW 220539
TAFLAL
TAF
KLAL 220539Z 2206/2306 14006KT P6SM SCT020 BKN100
     FM221300 13007KT 5SM TSRA SCT015CB BKN020 OVC050
     FM222300 09008KT 5SM SHRA VCTS FEW015CB SCT025 OVC050
     FM230300 07007KT P6SM VCSH SCT010 BKN020 OVC050
      AMD NOT SKED TIL 221100=

USA.gov is the U.S. government's official web portal to all federal, state and local government web resources and services.